Time;durP1;ratioP1;P1;durP2;ratioP2;P2;SDS_P1;SDS_P2;PMS_P1;PMS_P2;Temp;Humidity;BMP_temperature;BMP_pressure;BME280_temperature;BME280_humidity;BME280_pressure;Samples;Min_cycle;Max_cycle;Signal;HPM_P1;HPM_P2
2021/06/03 00:04:12;;;;;;;9.13;7.35;;;;;;;11.22;100.00;101319.09;257370;1099;114876;-68
2021/06/03 00:09:14;;;;;;;9.68;7.28;;;;;;;11.34;100.00;101317.88;256991;1104;114841;-72
2021/06/03 00:14:26;;;;;;;10.93;7.88;;;;;;;11.29;100.00;101311.80;256748;1104;114522;-69
2021/06/03 00:19:32;;;;;;;8.60;7.25;;;;;;;11.07;100.00;101319.52;257182;1104;114709;-69
2021/06/03 00:24:34;;;;;;;8.43;7.63;;;;;;;11.05;100.00;101326.70;257937;1100;114643;-68
2021/06/03 00:29:36;;;;;;;9.18;8.20;;;;;;;10.99;100.00;101327.73;257209;1100;114607;-67
2021/06/03 00:34:39;;;;;;;9.60;7.90;;;;;;;10.94;100.00;101329.66;257312;1104;115793;-70
2021/06/03 00:39:41;;;;;;;11.28;7.83;;;;;;;11.03;100.00;101325.86;258432;1104;114949;-67
2021/06/03 00:44:44;;;;;;;9.78;8.00;;;;;;;11.04;100.00;101319.61;258320;1098;114859;-72
2021/06/03 00:49:49;;;;;;;11.27;7.93;;;;;;;11.02;100.00;101316.10;256906;1099;114714;-68
2021/06/03 00:54:52;;;;;;;12.05;8.70;;;;;;;10.77;100.00;101314.10;258051;1098;115157;-67
2021/06/03 00:59:54;;;;;;;8.80;7.90;;;;;;;11.02;100.00;101316.10;256798;1104;114796;-66
2021/06/03 01:04:56;;;;;;;12.20;7.73;;;;;;;10.82;100.00;101312.19;256717;1098;115041;-68
2021/06/03 01:10:17;;;;;;;9.33;8.28;;;;;;;10.92;100.00;101319.04;256684;1104;115093;-68
2021/06/03 01:15:20;;;;;;;9.70;8.70;;;;;;;10.83;100.00;101316.61;257260;1104;114599;-69
2021/06/03 01:20:24;;;;;;;9.75;8.50;;;;;;;10.76;100.00;101320.34;257225;1104;114570;-68
2021/06/03 01:25:26;;;;;;;10.48;9.45;;;;;;;10.78;100.00;101323.86;257473;1098;114768;-69
2021/06/03 01:30:37;;;;;;;11.08;9.00;;;;;;;10.79;100.00;101330.92;257380;1100;115379;-69
2021/06/03 01:35:46;;;;;;;16.07;10.23;;;;;;;10.73;100.00;101331.08;257708;1104;115032;-68
2021/06/03 01:40:54;;;;;;;16.88;10.00;;;;;;;10.79;100.00;101320.25;256630;1100;115211;-68
2021/06/03 01:45:58;;;;;;;10.68;9.38;;;;;;;10.86;100.00;101331.65;256564;1099;115434;-67
2021/06/03 01:51:07;;;;;;;10.53;8.97;;;;;;;10.93;100.00;101334.10;256873;1098;114624;-68
2021/06/03 01:56:17;;;;;;;12.13;9.53;;;;;;;10.80;100.00;101336.23;257745;1099;114751;-68
2021/06/03 02:01:25;;;;;;;12.03;10.15;;;;;;;10.75;100.00;101335.45;257188;1104;115055;-68
2021/06/03 02:06:30;;;;;;;16.15;11.95;;;;;;;10.91;100.00;101341.29;258690;1099;115516;-69
2021/06/03 02:11:40;;;;;;;17.95;11.63;;;;;;;11.10;100.00;101335.45;256479;1104;115123;-72
2021/06/03 02:16:50;;;;;;;11.13;9.45;;;;;;;10.91;100.00;101337.73;257774;1100;115089;-68
2021/06/03 02:21:53;;;;;;;13.88;10.08;;;;;;;10.91;100.00;101335.95;257174;1100;115144;-71
2021/06/03 02:26:57;;;;;;;13.95;11.50;;;;;;;10.81;100.00;101345.09;257613;1104;115356;-68
2021/06/03 02:32:00;;;;;;;13.43;11.03;;;;;;;11.03;100.00;101334.73;257833;1098;115755;-69
2021/06/03 02:37:08;;;;;;;16.80;12.33;;;;;;;10.78;100.00;101339.86;257812;1100;115559;-68
2021/06/03 02:42:10;;;;;;;14.80;11.68;;;;;;;10.76;100.00;101331.88;258648;1104;115499;-69
2021/06/03 02:47:16;;;;;;;12.10;10.10;;;;;;;11.05;100.00;101337.38;259283;1104;113913;-68
2021/06/03 02:52:21;;;;;;;18.55;13.18;;;;;;;10.86;100.00;101335.18;257223;1100;115858;-69
2021/06/03 02:57:27;;;;;;;14.43;12.03;;;;;;;10.90;100.00;101339.53;258126;1099;115496;-68
2021/06/03 03:02:30;;;;;;;14.18;11.85;;;;;;;10.92;100.00;101340.38;256715;1104;114235;-68
2021/06/03 03:07:34;;;;;;;14.65;11.40;;;;;;;10.97;100.00;101345.56;256799;1099;115186;-69
2021/06/03 03:12:37;;;;;;;12.48;10.63;;;;;;;10.98;100.00;101347.32;257239;1104;115171;-68
2021/06/03 03:17:41;;;;;;;12.08;9.70;;;;;;;11.04;100.00;101367.64;256831;1097;115304;-68
2021/06/03 03:22:53;;;;;;;11.53;10.28;;;;;;;11.06;100.00;101363.15;257391;1104;114783;-68
2021/06/03 03:27:57;;;;;;;15.38;11.68;;;;;;;11.06;100.00;101357.81;257565;1099;115381;-69
2021/06/03 03:32:59;;;;;;;15.08;12.23;;;;;;;10.92;100.00;101369.72;257451;1104;115107;-69
2021/06/03 03:38:01;;;;;;;12.13;10.77;;;;;;;11.05;100.00;101374.73;258362;1098;115568;-68
2021/06/03 03:43:03;;;;;;;17.85;13.00;;;;;;;11.19;100.00;101363.67;258260;1100;115595;-69
2021/06/03 03:48:07;;;;;;;13.18;11.70;;;;;;;11.18;100.00;101373.48;256963;1100;115247;-69
2021/06/03 03:53:10;;;;;;;;;;;;;;;11.23;100.00;101368.89;257652;1104;114960;-68
2021/06/03 03:58:15;;;;;;;13.40;11.88;;;;;;;11.20;100.00;101366.32;258198;1100;103075;-64
2021/06/03 04:03:24;;;;;;;13.30;11.65;;;;;;;11.25;100.00;101372.41;257075;1099;115228;-68
2021/06/03 04:08:32;;;;;;;13.60;12.23;;;;;;;11.29;100.00;101373.20;258036;1098;116035;-68
2021/06/03 04:13:35;;;;;;;14.03;12.40;;;;;;;11.48;100.00;101385.11;256908;1100;115005;-69
2021/06/03 04:18:40;;;;;;;13.58;12.13;;;;;;;11.58;100.00;101374.18;257932;1104;115400;-69
2021/06/03 04:23:46;;;;;;;14.95;12.35;;;;;;;11.76;100.00;101386.13;257068;1099;115452;-70
2021/06/03 04:28:48;;;;;;;13.05;11.75;;;;;;;11.73;100.00;101378.19;257006;1100;115329;-68
2021/06/03 04:33:52;;;;;;;11.63;10.33;;;;;;;11.67;100.00;101381.04;257187;1104;115193;-69
2021/06/03 04:38:54;;;;;;;12.50;11.33;;;;;;;11.85;100.00;101390.31;257028;1104;115770;-69
2021/06/03 04:43:57;;;;;;;16.20;13.05;;;;;;;11.91;100.00;101388.32;258362;1104;115300;-68
2021/06/03 04:48:59;;;;;;;14.00;12.53;;;;;;;12.10;100.00;101388.68;257128;1099;115273;-67
2021/06/03 04:54:02;;;;;;;14.88;12.23;;;;;;;12.35;100.00;101393.28;258135;1104;115054;-68
2021/06/03 04:59:04;;;;;;;12.40;11.15;;;;;;;12.54;100.00;101398.93;257262;1104;115311;-69
2021/06/03 05:04:09;;;;;;;13.05;9.80;;;;;;;12.70;100.00;101387.70;257380;1100;115144;-69
2021/06/03 05:09:11;;;;;;;8.45;7.60;;;;;;;12.78;100.00;101393.67;256980;1100;115006;-69
2021/06/03 05:14:14;;;;;;;9.78;8.55;;;;;;;12.88;100.00;101408.52;256795;1100;114706;-71
2021/06/03 05:19:17;;;;;;;10.00;8.93;;;;;;;12.94;100.00;101398.52;256955;1099;114659;-70
2021/06/03 05:24:20;;;;;;;10.60;8.33;;;;;;;12.99;100.00;101396.55;257451;1104;115141;-70
2021/06/03 05:29:22;;;;;;;9.93;8.93;;;;;;;13.01;100.00;101394.70;258233;1104;115380;-70
2021/06/03 05:34:27;;;;;;;9.93;8.53;;;;;;;13.13;100.00;101402.30;257260;1104;115307;-70
2021/06/03 05:39:30;;;;;;;9.90;8.88;;;;;;;13.23;100.00;101403.75;257815;1104;114982;-70
2021/06/03 05:44:33;;;;;;;10.85;9.58;;;;;;;13.37;100.00;101410.42;257777;1104;114886;-69
2021/06/03 05:49:38;;;;;;;9.90;8.58;;;;;;;13.67;100.00;101412.96;256523;1104;114832;-70
2021/06/03 05:54:41;;;;;;;9.70;8.68;;;;;;;13.79;100.00;101407.14;256806;1104;115060;-71
2021/06/03 05:59:43;;;;;;;9.83;8.83;;;;;;;13.81;100.00;101413.33;256018;1104;114578;-69
2021/06/03 06:10:10;;;;;;;10.50;9.10;;;;;;;13.96;100.00;101419.01;256375;1104;115982;-70
2021/06/03 06:15:13;;;;;;;13.15;9.20;;;;;;;14.00;100.00;101420.66;256386;1104;114624;-70
2021/06/03 06:20:15;;;;;;;10.20;9.13;;;;;;;14.03;100.00;101415.16;256365;1104;115129;-69
2021/06/03 06:25:18;;;;;;;9.95;8.85;;;;;;;14.11;100.00;101417.57;256208;1099;114908;-74
2021/06/03 06:30:21;;;;;;;11.70;8.63;;;;;;;14.28;100.00;101408.87;256644;1104;115184;-74
2021/06/03 06:35:24;;;;;;;10.38;7.73;;;;;;;14.37;100.00;101419.24;257406;1104;115176;-71
2021/06/03 06:40:27;;;;;;;9.28;7.30;;;;;;;14.64;95.95;101419.06;256791;1104;114845;-70
2021/06/03 06:45:31;;;;;;;8.73;7.20;;;;;;;14.72;95.17;101425.03;256686;1099;114610;-70
2021/06/03 06:50:40;;;;;;;8.60;6.78;;;;;;;15.03;92.89;101426.41;257056;1104;114507;-72
2021/06/03 06:55:43;;;;;;;9.15;6.40;;;;;;;15.24;92.28;101423.75;256552;1104;114756;-69
2021/06/03 07:00:49;;;;;;;7.18;6.48;;;;;;;15.40;90.17;101422.15;257084;1099;114489;-72
2021/06/03 07:05:51;;;;;;;7.60;6.55;;;;;;;15.65;89.66;101425.56;256659;1104;114630;-70
2021/06/03 07:10:54;;;;;;;8.50;6.55;;;;;;;15.72;88.08;101422.52;256559;1099;114736;-68
2021/06/03 07:15:57;;;;;;;9.63;6.60;;;;;;;15.95;87.41;101415.25;256329;1098;115427;-69
2021/06/03 07:20:59;;;;;;;7.90;6.83;;;;;;;16.22;85.89;101420.27;256603;1100;114806;-70
2021/06/03 07:26:03;;;;;;;7.15;6.38;;;;;;;16.46;83.93;101411.98;256656;1099;115021;-70
2021/06/03 07:31:23;;;;;;;10.73;8.88;;;;;;;16.51;83.00;101420.69;256465;1104;114643;-69
2021/06/03 07:36:25;;;;;;;8.13;6.10;;;;;;;16.54;81.79;101417.86;258575;1099;114486;-70
2021/06/03 07:41:27;;;;;;;6.10;5.33;;;;;;;16.83;79.64;101426.33;257297;1104;114770;-70
2021/06/03 07:46:32;;;;;;;6.43;4.83;;;;;;;17.16;77.53;101414.81;256640;1100;114766;-70
2021/06/03 07:51:36;;;;;;;5.35;4.78;;;;;;;17.19;76.68;101414.67;256590;1100;114726;-73
2021/06/03 07:56:39;;;;;;;5.00;4.53;;;;;;;17.23;75.14;101418.94;256201;1099;115055;-68
2021/06/03 08:01:42;;;;;;;5.20;4.70;;;;;;;17.66;74.01;101413.09;256301;1099;114858;-70
2021/06/03 08:06:44;;;;;;;6.18;5.58;;;;;;;18.02;70.56;101411.22;256104;1099;114677;-72
2021/06/03 08:11:46;;;;;;;5.28;4.40;;;;;;;17.88;68.65;101410.13;256502;1104;115590;-71
2021/06/03 08:16:49;;;;;;;14.78;4.63;;;;;;;18.09;63.83;101418.02;256292;1104;114540;-69
2021/06/03 08:21:51;;;;;;;3.70;3.35;;;;;;;18.20;62.63;101407.48;256183;1104;114939;-70
2021/06/03 08:26:53;;;;;;;5.78;3.08;;;;;;;18.45;57.97;101403.41;256262;1099;114984;-70
2021/06/03 08:31:55;;;;;;;3.63;2.95;;;;;;;18.36;61.36;101406.63;256308;1104;114483;-72
2021/06/03 08:36:58;;;;;;;4.68;3.70;;;;;;;18.38;65.37;101399.32;256710;1099;114526;-70
2021/06/03 08:42:06;;;;;;;4.50;3.45;;;;;;;18.11;62.74;101399.92;257595;1099;114786;-70
2021/06/03 08:47:09;;;;;;;6.60;3.53;;;;;;;18.29;60.41;101395.33;256522;1104;114555;-69
2021/06/03 08:52:13;;;;;;;4.23;3.00;;;;;;;18.26;61.52;101390.08;256754;1104;114537;-71
2021/06/03 08:57:15;;;;;;;4.80;3.20;;;;;;;18.34;61.59;101389.64;256013;1105;114888;-71
2021/06/03 09:02:19;;;;;;;4.13;2.80;;;;;;;18.34;58.93;101395.92;256479;1104;114393;-68
2021/06/03 09:07:33;;;;;;;5.68;2.80;;;;;;;18.57;56.36;101386.50;256131;1099;114970;-69
2021/06/03 09:12:35;;;;;;;;;;;;;;;19.18;52.28;101393.80;256740;1099;114460;-69
2021/06/03 09:17:45;;;;;;;2.30;2.10;;;;;;;19.56;47.88;101391.44;256809;1100;103093;-69
2021/06/03 09:22:47;;;;;;;4.90;4.40;;;;;;;19.82;42.86;101382.66;256521;1098;114674;-71
2021/06/03 09:27:50;;;;;;;2.40;2.20;;;;;;;19.73;38.37;101373.30;256590;1100;114968;-70
2021/06/03 09:32:53;;;;;;;2.50;2.30;;;;;;;19.97;38.82;101376.30;256464;1098;114520;-74
2021/06/03 09:38:05;;;;;;;1.78;1.68;;;;;;;19.73;39.89;101373.30;256494;1100;114444;-70
2021/06/03 09:43:10;;;;;;;1.85;1.73;;;;;;;19.54;40.63;101379.84;256636;1104;114721;-72
2021/06/03 09:48:42;;;;;;;3.00;2.30;;;;;;;19.54;40.81;101363.61;256452;1098;114440;-69
2021/06/03 09:53:53;;;;;;;2.78;1.88;;;;;;;20.28;41.96;101368.02;256240;1104;114657;-69
2021/06/03 09:58:59;;;;;;;2.00;1.80;;;;;;;20.75;37.13;101373.98;256351;1100;114632;-70
2021/06/03 10:04:02;;;;;;;4.05;2.88;;;;;;;20.98;40.31;101369.70;256436;1099;114199;-68
2021/06/03 10:09:05;;;;;;;2.68;2.48;;;;;;;21.13;37.52;101362.34;256419;1104;114451;-69
2021/06/03 10:14:09;;;;;;;5.10;2.60;;;;;;;21.17;43.48;101359.32;256400;1097;116457;-70
2021/06/03 10:19:17;;;;;;;;;;;;;;;21.00;41.96;101362.34;256470;1099;114899;-70
2021/06/03 10:24:59;;;;;;;3.88;3.38;;;;;;;20.46;44.33;101369.50;256635;1104;103566;-68
2021/06/03 10:30:08;;;;;;;1.90;1.80;;;;;;;20.22;45.00;101370.17;256042;1099;115021;-68
2021/06/03 10:35:14;;;;;;;3.20;2.15;;;;;;;20.47;41.54;101364.98;256696;1100;114888;-70
2021/06/03 10:40:28;;;;;;;3.73;2.13;;;;;;;20.46;40.77;101372.21;256468;1104;115015;-71
2021/06/03 10:45:36;;;;;;;5.28;2.45;;;;;;;20.42;41.34;101362.56;256148;1104;114980;-68
2021/06/03 10:50:44;;;;;;;3.08;1.98;;;;;;;21.32;42.50;101362.79;256860;1098;114738;-70
2021/06/03 10:55:50;;;;;;;2.40;2.20;;;;;;;21.30;40.40;101363.88;256259;1104;114793;-69
2021/06/03 11:01:02;;;;;;;3.43;2.33;;;;;;;21.41;40.99;101355.88;256432;1104;114484;-69
2021/06/03 11:06:11;;;;;;;3.65;2.65;;;;;;;21.12;43.44;101360.61;256562;1104;114823;-69
2021/06/03 11:11:13;;;;;;;2.95;2.18;;;;;;;21.31;40.16;101362.91;256493;1103;114834;-70
2021/06/03 11:16:23;;;;;;;3.25;2.35;;;;;;;21.29;39.65;101348.58;256224;1099;201989;-68
2021/06/03 11:21:41;;;;;;;4.08;3.10;;;;;;;21.61;40.72;101346.33;256559;1098;114861;-68
2021/06/03 11:26:43;;;;;;;2.43;2.13;;;;;;;21.60;39.94;101341.02;256273;1100;114431;-71
2021/06/03 11:32:11;;;;;;;3.80;2.03;;;;;;;21.42;42.24;101341.34;256978;1098;114950;-70
2021/06/03 11:37:43;;;;;;;3.03;2.45;;;;;;;21.47;43.13;101339.16;256442;1104;114366;-71
2021/06/03 11:42:54;;;;;;;2.50;2.30;;;;;;;22.75;40.58;101331.64;256786;1104;114674;-69
2021/06/03 11:48:01;;;;;;;3.55;2.13;;;;;;;22.51;37.38;101338.94;256729;1100;114372;-69
2021/06/03 11:53:03;;;;;;;2.75;2.43;;;;;;;23.47;38.86;101331.58;256963;1104;114729;-69
2021/06/03 11:58:31;;;;;;;2.50;2.30;;;;;;;23.27;38.08;101319.55;256922;1099;114426;-56
2021/06/03 12:03:42;;;;;;;2.50;2.30;;;;;;;23.30;40.75;101317.46;256300;1099;114681;-69
2021/06/03 12:08:53;;;;;;;2.70;2.50;;;;;;;22.59;38.51;101320.20;255980;1104;114826;-71
2021/06/03 12:14:04;;;;;;;3.40;2.55;;;;;;;22.79;35.05;101317.80;256271;1104;114278;-72
2021/06/03 12:19:28;;;;;;;3.13;2.77;;;;;;;23.38;36.70;101312.28;255976;1104;114760;-70
2021/06/03 12:24:38;;;;;;;2.77;2.57;;;;;;;23.17;38.34;101308.55;255774;1104;114782;-70
2021/06/03 12:29:40;;;;;;;3.15;2.05;;;;;;;23.10;35.20;101302.67;256009;1099;115120;-69
2021/06/03 12:34:43;;;;;;;2.53;2.37;;;;;;;23.02;35.66;101302.41;257044;1100;115603;-69
2021/06/03 12:39:45;;;;;;;3.33;2.18;;;;;;;22.80;32.78;101300.52;255941;1099;114678;-71
2021/06/03 12:45:00;;;;;;;3.10;2.25;;;;;;;23.01;35.05;101304.28;256247;1104;114801;-69
2021/06/03 12:50:07;;;;;;;2.65;2.13;;;;;;;22.70;34.17;101301.22;255585;1100;408153;-67
2021/06/03 12:55:10;;;;;;;2.30;2.10;;;;;;;22.35;33.34;101291.16;257259;1104;114610;-70
2021/06/03 13:00:18;;;;;;;2.50;2.30;;;;;;;22.47;37.80;101300.27;256473;1104;114816;-68
2021/06/03 13:05:22;;;;;;;2.80;2.50;;;;;;;22.23;36.28;101286.67;256355;1099;114432;-69
2021/06/03 13:10:25;;;;;;;2.63;2.43;;;;;;;22.33;36.65;101290.44;257227;1104;114967;-69
2021/06/03 13:15:29;;;;;;;2.33;2.20;;;;;;;22.87;35.83;101283.59;256648;1104;114856;-70
2021/06/03 13:20:52;;;;;;;4.03;2.23;;;;;;;22.80;33.67;101281.48;257013;1099;114631;-69
2021/06/03 13:26:03;;;;;;;2.18;2.08;;;;;;;22.55;36.94;101280.69;256626;1104;115458;-69
2021/06/03 13:31:09;;;;;;;2.90;2.70;;;;;;;22.32;36.37;101274.23;256761;1104;114992;-70
2021/06/03 13:36:13;;;;;;;2.98;2.40;;;;;;;22.47;37.33;101277.69;256604;1100;114464;-71
2021/06/03 13:41:16;;;;;;;2.50;2.30;;;;;;;22.50;37.24;101278.31;257046;1098;114858;-72
2021/06/03 13:46:20;;;;;;;3.08;2.63;;;;;;;22.37;38.22;101275.63;257005;1104;114970;-71
2021/06/03 13:51:22;;;;;;;2.00;1.90;;;;;;;22.51;35.09;101269.19;257018;1098;114840;-69
2021/06/03 13:56:27;;;;;;;5.43;3.20;;;;;;;22.48;36.08;101269.41;256688;1104;114587;-70
2021/06/03 14:01:32;;;;;;;2.75;2.55;;;;;;;22.23;36.31;101267.66;256863;1099;114397;-70
2021/06/03 14:06:38;;;;;;;3.10;2.30;;;;;;;22.06;37.03;101268.94;257734;1098;114875;-70
2021/06/03 14:11:52;;;;;;;3.20;1.98;;;;;;;21.98;39.08;101264.09;256444;1096;114913;-69
2021/06/03 14:17:11;;;;;;;2.65;2.20;;;;;;;21.94;39.56;101266.17;257138;1100;114424;-70
2021/06/03 14:22:31;;;;;;;2.27;2.07;;;;;;;21.85;36.97;101272.27;256645;1104;114608;-71
2021/06/03 14:27:34;;;;;;;3.07;2.40;;;;;;;21.92;37.32;101272.70;257210;1104;114521;-71
2021/06/03 14:32:50;;;;;;;6.78;3.10;;;;;;;21.93;39.57;101264.43;258175;1099;114441;-70
2021/06/03 14:37:58;;;;;;;4.03;2.48;;;;;;;22.07;39.48;101257.95;257390;1097;114390;-71
2021/06/03 14:43:13;;;;;;;3.53;2.20;;;;;;;22.25;39.84;101257.56;256952;1098;114699;-69
2021/06/03 14:48:22;;;;;;;3.60;2.45;;;;;;;22.12;39.05;101254.89;256378;1104;114884;-70
2021/06/03 14:53:29;;;;;;;2.65;1.98;;;;;;;21.99;38.29;101251.38;256964;1096;115123;-72
2021/06/03 14:58:32;;;;;;;2.40;2.20;;;;;;;21.97;39.96;101256.92;257351;1104;114759;-71
2021/06/03 15:03:35;;;;;;;3.13;2.30;;;;;;;21.87;41.03;101258.58;257357;1104;114672;-71
2021/06/03 15:08:37;;;;;;;3.78;2.30;;;;;;;21.81;38.89;101266.20;256945;1099;115305;-62
2021/06/03 15:13:39;;;;;;;3.93;2.40;;;;;;;21.74;38.43;101256.78;256618;1104;114649;-69
2021/06/03 15:18:42;;;;;;;2.70;2.03;;;;;;;21.93;39.12;101252.69;256390;1104;114899;-71
2021/06/03 15:23:44;;;;;;;3.73;2.47;;;;;;;22.30;37.07;101247.20;257449;1100;114712;-69
2021/06/03 15:28:48;;;;;;;6.20;4.70;;;;;;;22.71;38.85;101248.60;256666;1100;114623;-71
2021/06/03 15:33:50;;;;;;;3.93;2.80;;;;;;;23.11;36.48;101246.46;257355;1100;114921;-69
2021/06/03 15:38:55;;;;;;;3.55;3.25;;;;;;;22.80;39.88;101240.72;256793;1105;114663;-70
2021/06/03 15:43:58;;;;;;;3.65;2.40;;;;;;;23.37;37.15;101253.41;256679;1098;114412;-70
2021/06/03 15:49:00;;;;;;;3.97;2.80;;;;;;;22.69;39.80;101256.03;256074;1104;114328;-67
2021/06/03 15:54:04;;;;;;;3.60;3.30;;;;;;;22.68;37.35;101251.58;256360;1104;114855;-69
2021/06/03 15:59:07;;;;;;;3.70;2.57;;;;;;;22.27;38.82;101245.59;256565;1104;221362;-68
2021/06/03 16:04:09;;;;;;;3.85;2.55;;;;;;;22.26;38.15;101238.42;256738;1104;114416;-71
2021/06/03 16:09:11;;;;;;;3.47;2.50;;;;;;;21.98;38.59;101236.95;256282;1099;114607;-71
2021/06/03 16:14:16;;;;;;;;;;;;;;;21.87;39.30;101236.87;256721;1104;114746;-70
2021/06/03 16:19:20;;;;;;;2.88;2.45;;;;;;;21.77;40.96;101237.57;256373;1104;103518;-70
2021/06/03 16:24:22;;;;;;;3.73;1.87;;;;;;;21.65;39.34;101238.45;256337;1099;115301;-67
2021/06/03 16:29:25;;;;;;;3.13;2.35;;;;;;;21.57;39.99;101238.14;256404;1100;114805;-67
2021/06/03 16:34:27;;;;;;;8.60;2.83;;;;;;;21.57;41.93;101244.45;256413;1100;114519;-70
2021/06/03 16:39:29;;;;;;;3.20;2.60;;;;;;;21.53;40.84;101242.05;256828;1104;114426;-71
2021/06/03 16:44:31;;;;;;;5.23;3.17;;;;;;;21.40;42.54;101242.94;256981;1100;114472;-69
2021/06/03 16:49:34;;;;;;;6.83;3.78;;;;;;;21.36;42.78;101238.70;256598;1104;114529;-70
2021/06/03 16:54:36;;;;;;;3.15;2.70;;;;;;;21.14;42.47;101245.70;256497;1104;114627;-71
2021/06/03 16:59:38;;;;;;;3.10;2.23;;;;;;;21.15;42.84;101241.13;256315;1104;114594;-57
2021/06/03 17:04:40;;;;;;;3.30;3.00;;;;;;;20.93;41.98;101237.23;256201;1098;114657;-71
2021/06/03 17:09:44;;;;;;;3.18;2.88;;;;;;;20.83;43.54;101242.43;256108;1104;114416;-71
2021/06/03 17:14:46;;;;;;;2.93;2.58;;;;;;;20.74;43.08;101237.64;256270;1104;114772;-72
2021/06/03 17:19:49;;;;;;;4.05;3.30;;;;;;;20.77;43.23;101244.69;256439;1104;114434;-71
2021/06/03 17:24:52;;;;;;;4.80;3.00;;;;;;;20.79;42.68;101242.75;256282;1104;114547;-70
2021/06/03 17:29:54;;;;;;;3.53;3.27;;;;;;;20.84;43.78;101237.87;255986;1104;114555;-73
2021/06/03 17:34:57;;;;;;;3.50;2.77;;;;;;;20.83;42.75;101247.85;256286;1098;115296;-71
2021/06/03 17:40:00;;;;;;;3.40;3.10;;;;;;;20.82;42.63;101251.53;256269;1104;114764;-68
2021/06/03 17:45:03;;;;;;;3.38;3.08;;;;;;;20.77;43.71;101250.99;256786;1099;114483;-71
2021/06/03 17:50:07;;;;;;;3.85;2.83;;;;;;;20.75;42.76;101250.22;256545;1104;114783;-70
2021/06/03 17:55:12;;;;;;;4.03;3.18;;;;;;;20.71;43.50;101259.52;256932;1104;114873;-68
2021/06/03 18:00:23;;;;;;;6.97;5.53;;;;;;;20.64;47.56;101253.64;256837;1105;114964;-67
2021/06/03 18:05:26;;;;;;;11.00;6.20;;;;;;;20.48;50.89;101253.84;256575;1104;114498;-69
2021/06/03 18:10:29;;;;;;;9.13;6.15;;;;;;;20.32;52.56;101254.02;256611;1104;114874;-71
2021/06/03 18:15:31;;;;;;;9.08;6.90;;;;;;;20.11;54.12;101261.72;256311;1100;114393;-70
2021/06/03 18:20:35;;;;;;;10.53;5.85;;;;;;;19.97;56.47;101269.89;256288;1099;114426;-68
2021/06/03 18:25:42;;;;;;;6.28;4.75;;;;;;;19.73;58.61;101278.63;256895;1099;114593;-72
2021/06/03 18:30:44;;;;;;;7.23;4.68;;;;;;;19.68;57.05;101288.84;256717;1104;114796;-70
2021/06/03 18:35:46;;;;;;;5.18;4.45;;;;;;;19.63;56.05;101289.14;256363;1098;114462;-68
2021/06/03 18:40:49;;;;;;;6.53;3.63;;;;;;;19.51;55.76;101298.92;256109;1099;114498;-72
2021/06/03 18:45:52;;;;;;;8.13;4.63;;;;;;;19.51;57.51;101304.34;255946;1104;114420;-70
2021/06/03 18:50:54;;;;;;;10.33;5.88;;;;;;;19.30;58.62;101301.13;256385;1104;114622;-68
2021/06/03 18:55:57;;;;;;;9.38;6.00;;;;;;;19.15;57.89;101302.97;256604;1099;114759;-71
2021/06/03 19:00:59;;;;;;;8.85;5.68;;;;;;;19.05;58.72;101310.77;256733;1104;114482;-68
2021/06/03 19:06:02;;;;;;;6.88;4.38;;;;;;;18.87;59.60;101318.13;256297;1100;114548;-70
2021/06/03 19:11:05;;;;;;;4.37;3.93;;;;;;;18.73;60.53;101315.39;256509;1104;114809;-71
2021/06/03 19:16:17;;;;;;;7.30;3.93;;;;;;;18.56;61.17;101311.00;256599;1099;114897;-72
2021/06/03 19:21:20;;;;;;;6.58;3.78;;;;;;;18.52;61.16;101323.80;256880;1104;118259;-72
2021/06/03 19:26:22;;;;;;;6.10;3.48;;;;;;;18.26;61.44;101312.68;256740;1098;115111;-72
2021/06/03 19:31:25;;;;;;;6.45;3.88;;;;;;;18.10;62.99;101314.54;256690;1104;114484;-68
2021/06/03 19:36:27;;;;;;;5.15;3.45;;;;;;;18.05;62.41;101319.30;257101;1104;115536;-71
2021/06/03 19:41:30;;;;;;;6.50;3.50;;;;;;;17.87;63.43;101311.28;256433;1098;114847;-69
2021/06/03 19:46:32;;;;;;;6.70;3.93;;;;;;;17.81;64.97;101312.48;256331;1104;114451;-71
2021/06/03 19:51:35;;;;;;;4.60;4.03;;;;;;;17.74;64.60;101310.23;257486;1099;114258;-70
2021/06/03 19:56:40;;;;;;;4.80;3.80;;;;;;;17.51;66.84;101309.67;258547;1104;114531;-70
2021/06/03 20:01:42;;;;;;;8.83;4.73;;;;;;;17.45;66.79;101312.70;256776;1104;114596;-69
2021/06/03 20:06:44;;;;;;;6.05;4.68;;;;;;;17.28;68.39;101319.00;256946;1104;115516;-68
2021/06/03 20:11:47;;;;;;;6.83;4.38;;;;;;;17.09;68.74;101316.41;257144;1099;114608;-71
2021/06/03 20:16:49;;;;;;;5.30;4.18;;;;;;;17.03;69.28;101323.88;256668;1104;114781;-70
2021/06/03 20:21:51;;;;;;;6.77;4.87;;;;;;;16.83;70.55;101329.39;256526;1104;114523;-70
2021/06/03 20:26:54;;;;;;;6.80;4.23;;;;;;;16.76;71.88;101327.96;256695;1104;114740;-67
2021/06/03 20:31:59;;;;;;;8.75;4.88;;;;;;;16.67;71.37;101323.93;256505;1096;114266;-68
2021/06/03 20:37:02;;;;;;;6.38;4.75;;;;;;;16.31;75.59;101322.98;257004;1103;115096;-71
2021/06/03 20:42:09;;;;;;;6.63;4.60;;;;;;;16.38;74.50;101332.50;256881;1098;114430;-69
2021/06/03 20:47:15;;;;;;;7.05;5.33;;;;;;;16.11;77.34;101347.30;256524;1104;114523;-69
2021/06/03 20:52:17;;;;;;;10.23;6.40;;;;;;;15.89;79.49;101342.94;256018;1104;114422;-70
2021/06/03 20:57:19;;;;;;;6.58;5.70;;;;;;;15.86;83.85;101343.97;256768;1096;114802;-68
2021/06/03 21:02:22;;;;;;;6.90;6.10;;;;;;;15.92;80.98;101346.36;256728;1096;114870;-70
2021/06/03 21:07:24;;;;;;;10.13;7.25;;;;;;;15.64;84.30;101349.45;256579;1104;114476;-67
2021/06/03 21:12:27;;;;;;;9.08;7.38;;;;;;;15.78;84.15;101338.92;256254;1098;114711;-70
2021/06/03 21:17:29;;;;;;;7.70;6.90;;;;;;;15.58;87.57;101345.22;255753;1104;115410;-71
2021/06/03 21:22:31;;;;;;;10.73;7.70;;;;;;;15.48;85.59;101345.70;257054;1096;114349;-68
2021/06/03 21:27:37;;;;;;;9.68;7.15;;;;;;;15.39;87.25;101353.23;256885;1104;114487;-71
2021/06/03 21:32:41;;;;;;;10.45;7.80;;;;;;;15.34;87.35;101352.58;257281;1097;114458;-70
2021/06/03 21:37:44;;;;;;;7.45;6.75;;;;;;;15.24;88.75;101348.55;257195;1104;114899;-70
2021/06/03 21:42:48;;;;;;;10.58;8.00;;;;;;;15.12;89.18;101353.53;257101;1097;114965;-67
2021/06/03 21:47:50;;;;;;;10.77;7.17;;;;;;;15.20;90.16;101349.63;257383;1100;114667;-67
2021/06/03 21:52:53;;;;;;;9.73;6.90;;;;;;;15.60;80.12;101358.58;256803;1096;114517;-67
2021/06/03 21:57:56;;;;;;;9.85;7.40;;;;;;;15.77;80.93;101356.00;257029;1104;114830;-68
2021/06/03 22:03:01;;;;;;;10.60;8.50;;;;;;;15.54;89.37;101348.11;257202;1097;114368;-68
2021/06/03 22:08:08;;;;;;;7.85;7.10;;;;;;;15.28;90.01;101347.48;256857;1096;114661;-68
2021/06/03 22:13:10;;;;;;;7.00;6.40;;;;;;;15.08;94.27;101351.04;257815;1099;114378;-68
2021/06/03 22:18:14;;;;;;;7.08;6.38;;;;;;;15.08;98.02;101357.27;257778;1104;114986;-69
2021/06/03 22:23:18;;;;;;;9.63;6.73;;;;;;;14.79;94.78;101348.69;257255;1104;114716;-68
2021/06/03 22:28:24;;;;;;;11.03;7.10;;;;;;;14.76;96.25;101350.63;256946;1104;114793;-70
2021/06/03 22:33:27;;;;;;;7.05;6.00;;;;;;;14.71;98.27;101353.50;257794;1096;115153;-69
2021/06/03 22:38:29;;;;;;;7.70;6.80;;;;;;;14.53;98.04;101344.38;256980;1104;114973;-70
2021/06/03 22:43:36;;;;;;;9.33;7.33;;;;;;;14.43;99.70;101343.89;257276;1099;114856;-70
2021/06/03 22:48:42;;;;;;;8.08;7.28;;;;;;;14.44;97.18;101347.42;256841;1104;115240;-71
2021/06/03 22:53:48;;;;;;;7.35;6.65;;;;;;;14.34;99.96;101344.25;256299;1099;114388;-70
2021/06/03 22:58:52;;;;;;;7.35;6.65;;;;;;;14.25;100.00;101349.98;256884;1099;114653;-69
2021/06/03 23:03:55;;;;;;;8.63;7.20;;;;;;;14.06;99.09;101350.72;257047;1098;114701;-72